sensor_id;sensor_type;location;lat;lon;timestamp;P1;durP1;ratioP1;P2;durP2;ratioP2
24086;SDS011;22893;50.572;7.234;2022-07-12T00:00:14;8.65;;;5.22;;
24086;SDS011;22893;50.572;7.234;2022-07-12T00:02:42;8.98;;;5.58;;
24086;SDS011;22893;50.572;7.234;2022-07-12T00:05:09;9.53;;;5.50;;
24086;SDS011;22893;50.572;7.234;2022-07-12T00:07:37;8.18;;;5.20;;
24086;SDS011;22893;50.572;7.234;2022-07-12T00:10:05;9.13;;;5.78;;
24086;SDS011;22893;50.572;7.234;2022-07-12T00:12:34;9.43;;;5.75;;
24086;SDS011;22893;50.572;7.234;2022-07-12T00:15:02;8.88;;;5.92;;
24086;SDS011;22893;50.572;7.234;2022-07-12T00:17:29;11.48;;;5.53;;
24086;SDS011;22893;50.572;7.234;2022-07-12T00:19:57;11.93;;;5.37;;
24086;SDS011;22893;50.572;7.234;2022-07-12T00:22:24;9.18;;;5.12;;
24086;SDS011;22893;50.572;7.234;2022-07-12T00:24:54;8.13;;;5.10;;
24086;SDS011;22893;50.572;7.234;2022-07-12T00:27:22;11.05;;;5.28;;
24086;SDS011;22893;50.572;7.234;2022-07-12T00:29:49;7.62;;;5.03;;
24086;SDS011;22893;50.572;7.234;2022-07-12T00:32:17;9.38;;;5.67;;
24086;SDS011;22893;50.572;7.234;2022-07-12T00:34:44;7.87;;;4.97;;
24086;SDS011;22893;50.572;7.234;2022-07-12T00:37:12;9.70;;;5.58;;
24086;SDS011;22893;50.572;7.234;2022-07-12T00:39:39;10.60;;;5.55;;
24086;SDS011;22893;50.572;7.234;2022-07-12T00:42:07;8.63;;;4.75;;
24086;SDS011;22893;50.572;7.234;2022-07-12T00:44:34;11.25;;;5.65;;
24086;SDS011;22893;50.572;7.234;2022-07-12T00:47:02;10.32;;;5.30;;
24086;SDS011;22893;50.572;7.234;2022-07-12T00:49:31;9.65;;;5.70;;
24086;SDS011;22893;50.572;7.234;2022-07-12T00:51:59;10.05;;;5.28;;
24086;SDS011;22893;50.572;7.234;2022-07-12T00:54:27;8.88;;;5.10;;
24086;SDS011;22893;50.572;7.234;2022-07-12T00:56:55;9.00;;;5.33;;
24086;SDS011;22893;50.572;7.234;2022-07-12T00:59:22;14.75;;;5.47;;
24086;SDS011;22893;50.572;7.234;2022-07-12T01:01:50;8.98;;;5.12;;
24086;SDS011;22893;50.572;7.234;2022-07-12T01:04:18;10.85;;;4.90;;
24086;SDS011;22893;50.572;7.234;2022-07-12T01:06:45;10.32;;;5.67;;
24086;SDS011;22893;50.572;7.234;2022-07-12T01:09:13;9.28;;;5.55;;
24086;SDS011;22893;50.572;7.234;2022-07-12T01:11:44;10.18;;;5.78;;
24086;SDS011;22893;50.572;7.234;2022-07-12T01:14:12;9.00;;;5.25;;
24086;SDS011;22893;50.572;7.234;2022-07-12T01:16:40;7.85;;;4.60;;
24086;SDS011;22893;50.572;7.234;2022-07-12T01:19:08;7.97;;;4.83;;
24086;SDS011;22893;50.572;7.234;2022-07-12T01:21:40;10.05;;;4.92;;
24086;SDS011;22893;50.572;7.234;2022-07-12T01:24:09;8.40;;;4.95;;
24086;SDS011;22893;50.572;7.234;2022-07-12T01:26:37;8.73;;;5.12;;
24086;SDS011;22893;50.572;7.234;2022-07-12T01:29:06;8.95;;;4.67;;
24086;SDS011;22893;50.572;7.234;2022-07-12T01:31:34;10.13;;;5.22;;
24086;SDS011;22893;50.572;7.234;2022-07-12T01:34:03;10.23;;;5.22;;
24086;SDS011;22893;50.572;7.234;2022-07-12T01:36:32;7.97;;;5.20;;
24086;SDS011;22893;50.572;7.234;2022-07-12T01:39:00;8.50;;;5.67;;
24086;SDS011;22893;50.572;7.234;2022-07-12T01:41:28;8.93;;;5.28;;
24086;SDS011;22893;50.572;7.234;2022-07-12T01:43:56;9.98;;;4.75;;
24086;SDS011;22893;50.572;7.234;2022-07-12T01:46:24;9.90;;;5.70;;
24086;SDS011;22893;50.572;7.234;2022-07-12T01:48:54;13.20;;;4.92;;
24086;SDS011;22893;50.572;7.234;2022-07-12T01:51:23;8.48;;;5.40;;
24086;SDS011;22893;50.572;7.234;2022-07-12T01:53:50;9.95;;;5.70;;
24086;SDS011;22893;50.572;7.234;2022-07-12T01:56:18;7.90;;;4.65;;
24086;SDS011;22893;50.572;7.234;2022-07-12T01:58:45;9.13;;;5.10;;
24086;SDS011;22893;50.572;7.234;2022-07-12T02:01:13;11.18;;;5.95;;
24086;SDS011;22893;50.572;7.234;2022-07-12T02:03:42;7.85;;;5.03;;
24086;SDS011;22893;50.572;7.234;2022-07-12T02:06:09;8.90;;;5.28;;
24086;SDS011;22893;50.572;7.234;2022-07-12T02:08:40;8.03;;;5.08;;
24086;SDS011;22893;50.572;7.234;2022-07-12T02:11:07;10.78;;;5.47;;
24086;SDS011;22893;50.572;7.234;2022-07-12T02:13:35;10.28;;;5.17;;
24086;SDS011;22893;50.572;7.234;2022-07-12T02:16:04;9.40;;;4.78;;
24086;SDS011;22893;50.572;7.234;2022-07-12T02:18:32;10.32;;;5.22;;
24086;SDS011;22893;50.572;7.234;2022-07-12T02:21:00;8.90;;;5.60;;
24086;SDS011;22893;50.572;7.234;2022-07-12T02:23:27;9.38;;;5.28;;
24086;SDS011;22893;50.572;7.234;2022-07-12T02:25:55;8.63;;;5.08;;
24086;SDS011;22893;50.572;7.234;2022-07-12T02:28:22;9.93;;;5.42;;
24086;SDS011;22893;50.572;7.234;2022-07-12T02:30:50;7.90;;;4.80;;
24086;SDS011;22893;50.572;7.234;2022-07-12T02:33:17;8.08;;;5.03;;
24086;SDS011;22893;50.572;7.234;2022-07-12T02:35:45;9.53;;;4.97;;
24086;SDS011;22893;50.572;7.234;2022-07-12T02:38:13;7.83;;;5.55;;
24086;SDS011;22893;50.572;7.234;2022-07-12T02:40:40;9.78;;;5.70;;
24086;SDS011;22893;50.572;7.234;2022-07-12T02:43:27;9.35;;;5.67;;
24086;SDS011;22893;50.572;7.234;2022-07-12T02:46:02;8.38;;;5.33;;
24086;SDS011;22893;50.572;7.234;2022-07-12T02:48:32;8.45;;;5.20;;
24086;SDS011;22893;50.572;7.234;2022-07-12T02:51:01;8.25;;;4.87;;
24086;SDS011;22893;50.572;7.234;2022-07-12T02:53:29;8.35;;;4.97;;
24086;SDS011;22893;50.572;7.234;2022-07-12T02:55:59;10.43;;;4.92;;
24086;SDS011;22893;50.572;7.234;2022-07-12T02:58:27;10.25;;;5.05;;
24086;SDS011;22893;50.572;7.234;2022-07-12T03:00:54;10.48;;;5.95;;
24086;SDS011;22893;50.572;7.234;2022-07-12T03:03:22;10.63;;;6.50;;
24086;SDS011;22893;50.572;7.234;2022-07-12T03:05:49;7.87;;;5.05;;
24086;SDS011;22893;50.572;7.234;2022-07-12T03:08:17;11.33;;;5.50;;
24086;SDS011;22893;50.572;7.234;2022-07-12T03:10:45;11.55;;;5.92;;
24086;SDS011;22893;50.572;7.234;2022-07-12T03:13:13;10.80;;;5.00;;
24086;SDS011;22893;50.572;7.234;2022-07-12T03:15:40;10.43;;;5.42;;
24086;SDS011;22893;50.572;7.234;2022-07-12T03:18:08;8.75;;;5.37;;
24086;SDS011;22893;50.572;7.234;2022-07-12T03:20:36;7.87;;;4.70;;
24086;SDS011;22893;50.572;7.234;2022-07-12T03:23:04;8.73;;;5.05;;
24086;SDS011;22893;50.572;7.234;2022-07-12T03:25:31;7.72;;;4.40;;
24086;SDS011;22893;50.572;7.234;2022-07-12T03:27:59;8.55;;;5.03;;
24086;SDS011;22893;50.572;7.234;2022-07-12T03:30:26;10.98;;;6.10;;
24086;SDS011;22893;50.572;7.234;2022-07-12T03:32:54;7.42;;;4.97;;
24086;SDS011;22893;50.572;7.234;2022-07-12T03:35:22;8.33;;;5.22;;
24086;SDS011;22893;50.572;7.234;2022-07-12T03:37:50;8.23;;;4.50;;
24086;SDS011;22893;50.572;7.234;2022-07-12T03:40:19;8.63;;;4.62;;
24086;SDS011;22893;50.572;7.234;2022-07-12T03:42:48;7.95;;;4.40;;
24086;SDS011;22893;50.572;7.234;2022-07-12T03:45:16;9.75;;;5.20;;
24086;SDS011;22893;50.572;7.234;2022-07-12T03:47:44;9.30;;;4.90;;
24086;SDS011;22893;50.572;7.234;2022-07-12T03:50:12;19.50;;;5.80;;
24086;SDS011;22893;50.572;7.234;2022-07-12T03:52:41;10.63;;;4.87;;
24086;SDS011;22893;50.572;7.234;2022-07-12T03:55:10;13.83;;;5.20;;
24086;SDS011;22893;50.572;7.234;2022-07-12T03:57:39;9.90;;;5.03;;
24086;SDS011;22893;50.572;7.234;2022-07-12T04:00:08;9.30;;;5.10;;
24086;SDS011;22893;50.572;7.234;2022-07-12T04:02:40;9.08;;;5.67;;
24086;SDS011;22893;50.572;7.234;2022-07-12T04:05:11;13.25;;;5.90;;
24086;SDS011;22893;50.572;7.234;2022-07-12T04:07:39;9.23;;;5.22;;
24086;SDS011;22893;50.572;7.234;2022-07-12T04:10:07;12.73;;;5.40;;
24086;SDS011;22893;50.572;7.234;2022-07-12T04:12:35;11.73;;;6.45;;
24086;SDS011;22893;50.572;7.234;2022-07-12T04:15:03;12.50;;;6.72;;
24086;SDS011;22893;50.572;7.234;2022-07-12T04:17:32;12.85;;;6.53;;
24086;SDS011;22893;50.572;7.234;2022-07-12T04:20:00;16.12;;;7.33;;
24086;SDS011;22893;50.572;7.234;2022-07-12T04:22:28;12.98;;;7.33;;
24086;SDS011;22893;50.572;7.234;2022-07-12T04:24:55;10.28;;;5.92;;
24086;SDS011;22893;50.572;7.234;2022-07-12T04:27:23;10.38;;;6.47;;
24086;SDS011;22893;50.572;7.234;2022-07-12T04:29:52;10.08;;;5.97;;
24086;SDS011;22893;50.572;7.234;2022-07-12T04:32:20;12.90;;;6.40;;
24086;SDS011;22893;50.572;7.234;2022-07-12T04:34:47;11.00;;;6.03;;
24086;SDS011;22893;50.572;7.234;2022-07-12T04:37:15;11.83;;;6.37;;
24086;SDS011;22893;50.572;7.234;2022-07-12T04:39:46;10.65;;;5.95;;
24086;SDS011;22893;50.572;7.234;2022-07-12T04:42:14;12.85;;;6.08;;
24086;SDS011;22893;50.572;7.234;2022-07-12T04:44:41;9.80;;;6.72;;
24086;SDS011;22893;50.572;7.234;2022-07-12T04:47:09;11.60;;;6.33;;
24086;SDS011;22893;50.572;7.234;2022-07-12T04:49:37;12.07;;;5.75;;
24086;SDS011;22893;50.572;7.234;2022-07-12T04:52:05;9.33;;;6.35;;
24086;SDS011;22893;50.572;7.234;2022-07-12T04:54:32;10.68;;;6.17;;
24086;SDS011;22893;50.572;7.234;2022-07-12T04:57:02;9.23;;;5.85;;
24086;SDS011;22893;50.572;7.234;2022-07-12T04:59:29;10.38;;;5.95;;
24086;SDS011;22893;50.572;7.234;2022-07-12T05:01:57;9.43;;;5.92;;
24086;SDS011;22893;50.572;7.234;2022-07-12T05:04:24;14.00;;;6.60;;
24086;SDS011;22893;50.572;7.234;2022-07-12T05:06:52;14.38;;;6.65;;
24086;SDS011;22893;50.572;7.234;2022-07-12T05:09:19;10.48;;;6.67;;
24086;SDS011;22893;50.572;7.234;2022-07-12T05:11:47;11.73;;;6.58;;
24086;SDS011;22893;50.572;7.234;2022-07-12T05:14:14;13.65;;;6.87;;
24086;SDS011;22893;50.572;7.234;2022-07-12T05:16:42;9.93;;;5.65;;
24086;SDS011;22893;50.572;7.234;2022-07-12T05:19:09;10.50;;;5.70;;
24086;SDS011;22893;50.572;7.234;2022-07-12T05:21:37;13.53;;;6.67;;
24086;SDS011;22893;50.572;7.234;2022-07-12T05:24:06;10.43;;;5.90;;
24086;SDS011;22893;50.572;7.234;2022-07-12T05:26:34;9.70;;;6.10;;
24086;SDS011;22893;50.572;7.234;2022-07-12T05:29:01;13.50;;;5.70;;
24086;SDS011;22893;50.572;7.234;2022-07-12T05:31:29;11.88;;;6.03;;
24086;SDS011;22893;50.572;7.234;2022-07-12T05:33:57;14.28;;;7.33;;
24086;SDS011;22893;50.572;7.234;2022-07-12T05:36:24;11.68;;;7.35;;
24086;SDS011;22893;50.572;7.234;2022-07-12T05:38:52;8.60;;;5.17;;
24086;SDS011;22893;50.572;7.234;2022-07-12T05:41:20;10.48;;;5.80;;
24086;SDS011;22893;50.572;7.234;2022-07-12T05:43:48;9.53;;;5.72;;
24086;SDS011;22893;50.572;7.234;2022-07-12T05:46:15;11.68;;;6.20;;
24086;SDS011;22893;50.572;7.234;2022-07-12T05:48:44;16.50;;;6.62;;
24086;SDS011;22893;50.572;7.234;2022-07-12T05:51:11;11.85;;;6.17;;
24086;SDS011;22893;50.572;7.234;2022-07-12T05:53:56;10.18;;;5.90;;
24086;SDS011;22893;50.572;7.234;2022-07-12T05:56:24;11.45;;;6.03;;
24086;SDS011;22893;50.572;7.234;2022-07-12T05:58:54;16.93;;;6.97;;
24086;SDS011;22893;50.572;7.234;2022-07-12T06:01:22;16.07;;;6.30;;
24086;SDS011;22893;50.572;7.234;2022-07-12T06:03:55;14.75;;;6.10;;
24086;SDS011;22893;50.572;7.234;2022-07-12T06:06:18;10.58;;;5.00;;
24086;SDS011;22893;50.572;7.234;2022-07-12T06:08:46;8.33;;;5.03;;
24086;SDS011;22893;50.572;7.234;2022-07-12T06:11:14;10.90;;;5.83;;
24086;SDS011;22893;50.572;7.234;2022-07-12T06:13:41;9.93;;;5.22;;
24086;SDS011;22893;50.572;7.234;2022-07-12T06:16:08;10.72;;;5.90;;
24086;SDS011;22893;50.572;7.234;2022-07-12T06:18:37;10.53;;;6.22;;
24086;SDS011;22893;50.572;7.234;2022-07-12T06:21:05;9.85;;;5.37;;
24086;SDS011;22893;50.572;7.234;2022-07-12T06:23:34;11.22;;;6.50;;
24086;SDS011;22893;50.572;7.234;2022-07-12T06:26:04;10.10;;;5.85;;
24086;SDS011;22893;50.572;7.234;2022-07-12T06:28:31;10.80;;;5.92;;
24086;SDS011;22893;50.572;7.234;2022-07-12T06:31:00;9.08;;;5.83;;
24086;SDS011;22893;50.572;7.234;2022-07-12T06:33:28;10.98;;;5.72;;
24086;SDS011;22893;50.572;7.234;2022-07-12T06:35:55;10.30;;;6.10;;
24086;SDS011;22893;50.572;7.234;2022-07-12T06:38:23;14.38;;;6.10;;
24086;SDS011;22893;50.572;7.234;2022-07-12T06:40:51;10.75;;;5.42;;
24086;SDS011;22893;50.572;7.234;2022-07-12T06:43:18;10.35;;;6.33;;
24086;SDS011;22893;50.572;7.234;2022-07-12T06:45:46;13.83;;;6.67;;
24086;SDS011;22893;50.572;7.234;2022-07-12T06:48:13;10.48;;;5.95;;
24086;SDS011;22893;50.572;7.234;2022-07-12T06:50:42;11.83;;;6.22;;
24086;SDS011;22893;50.572;7.234;2022-07-12T06:53:11;9.95;;;5.72;;
24086;SDS011;22893;50.572;7.234;2022-07-12T06:55:39;9.95;;;6.05;;
24086;SDS011;22893;50.572;7.234;2022-07-12T06:58:06;10.80;;;5.83;;
24086;SDS011;22893;50.572;7.234;2022-07-12T07:00:34;9.23;;;5.10;;
24086;SDS011;22893;50.572;7.234;2022-07-12T07:03:05;10.48;;;5.78;;
24086;SDS011;22893;50.572;7.234;2022-07-12T07:05:34;9.00;;;5.25;;
24086;SDS011;22893;50.572;7.234;2022-07-12T07:08:05;12.13;;;5.92;;
24086;SDS011;22893;50.572;7.234;2022-07-12T07:10:33;12.75;;;6.15;;
24086;SDS011;22893;50.572;7.234;2022-07-12T07:13:00;9.55;;;6.40;;
24086;SDS011;22893;50.572;7.234;2022-07-12T07:15:28;11.63;;;6.62;;
24086;SDS011;22893;50.572;7.234;2022-07-12T07:17:55;12.20;;;6.53;;
24086;SDS011;22893;50.572;7.234;2022-07-12T07:20:23;11.40;;;6.67;;
24086;SDS011;22893;50.572;7.234;2022-07-12T07:22:51;9.50;;;6.20;;
24086;SDS011;22893;50.572;7.234;2022-07-12T07:25:19;12.43;;;6.97;;
24086;SDS011;22893;50.572;7.234;2022-07-12T07:27:48;10.30;;;6.17;;
24086;SDS011;22893;50.572;7.234;2022-07-12T07:30:15;10.40;;;6.58;;
24086;SDS011;22893;50.572;7.234;2022-07-12T07:33:01;11.18;;;6.50;;
24086;SDS011;22893;50.572;7.234;2022-07-12T07:35:28;10.65;;;6.10;;
24086;SDS011;22893;50.572;7.234;2022-07-12T07:37:56;10.03;;;5.87;;
24086;SDS011;22893;50.572;7.234;2022-07-12T07:40:24;10.68;;;5.97;;
24086;SDS011;22893;50.572;7.234;2022-07-12T07:42:51;11.08;;;6.30;;
24086;SDS011;22893;50.572;7.234;2022-07-12T07:45:19;12.75;;;6.28;;
24086;SDS011;22893;50.572;7.234;2022-07-12T07:47:47;12.03;;;6.58;;
24086;SDS011;22893;50.572;7.234;2022-07-12T07:50:15;11.73;;;6.67;;
24086;SDS011;22893;50.572;7.234;2022-07-12T07:52:43;11.18;;;6.53;;
24086;SDS011;22893;50.572;7.234;2022-07-12T07:55:11;11.60;;;6.17;;
24086;SDS011;22893;50.572;7.234;2022-07-12T07:57:39;13.48;;;5.95;;
24086;SDS011;22893;50.572;7.234;2022-07-12T08:00:06;10.90;;;5.78;;
24086;SDS011;22893;50.572;7.234;2022-07-12T08:02:36;9.58;;;5.67;;
24086;SDS011;22893;50.572;7.234;2022-07-12T08:05:04;9.58;;;5.55;;
24086;SDS011;22893;50.572;7.234;2022-07-12T08:07:32;9.83;;;5.78;;
24086;SDS011;22893;50.572;7.234;2022-07-12T08:10:00;10.65;;;5.95;;
24086;SDS011;22893;50.572;7.234;2022-07-12T08:12:28;10.00;;;5.95;;
24086;SDS011;22893;50.572;7.234;2022-07-12T08:14:55;11.68;;;5.97;;
24086;SDS011;22893;50.572;7.234;2022-07-12T14:23:38;1.22;;;0.80;;
24086;SDS011;22893;50.572;7.234;2022-07-12T14:26:06;2.95;;;0.80;;
24086;SDS011;22893;50.572;7.234;2022-07-12T14:28:34;2.05;;;1.00;;
24086;SDS011;22893;50.572;7.234;2022-07-12T14:31:02;1.45;;;0.80;;
24086;SDS011;22893;50.572;7.234;2022-07-12T14:33:30;2.02;;;1.22;;
24086;SDS011;22893;50.572;7.234;2022-07-12T14:35:58;1.52;;;0.90;;
24086;SDS011;22893;50.572;7.234;2022-07-12T14:38:26;1.25;;;0.72;;
24086;SDS011;22893;50.572;7.234;2022-07-12T14:40:53;1.30;;;0.88;;
24086;SDS011;22893;50.572;7.234;2022-07-12T14:43:22;1.12;;;0.80;;
24086;SDS011;22893;50.572;7.234;2022-07-12T14:45:50;0.85;;;0.72;;
24086;SDS011;22893;50.572;7.234;2022-07-12T14:48:17;1.27;;;0.80;;
24086;SDS011;22893;50.572;7.234;2022-07-12T14:50:45;1.52;;;0.70;;
24086;SDS011;22893;50.572;7.234;2022-07-12T14:53:13;3.83;;;0.98;;
24086;SDS011;22893;50.572;7.234;2022-07-12T14:55:40;1.52;;;0.90;;
24086;SDS011;22893;50.572;7.234;2022-07-12T14:58:08;1.17;;;0.70;;
24086;SDS011;22893;50.572;7.234;2022-07-12T15:00:36;2.62;;;0.82;;
24086;SDS011;22893;50.572;7.234;2022-07-12T15:03:06;2.65;;;0.80;;
24086;SDS011;22893;50.572;7.234;2022-07-12T15:05:33;3.10;;;0.80;;
24086;SDS011;22893;50.572;7.234;2022-07-12T15:08:00;2.30;;;0.60;;
24086;SDS011;22893;50.572;7.234;2022-07-12T15:10:28;1.45;;;1.15;;
24086;SDS011;22893;50.572;7.234;2022-07-12T15:12:57;3.02;;;0.72;;
24086;SDS011;22893;50.572;7.234;2022-07-12T15:15:25;1.15;;;0.68;;
24086;SDS011;22893;50.572;7.234;2022-07-12T15:17:56;2.83;;;0.60;;
24086;SDS011;22893;50.572;7.234;2022-07-12T15:20:23;1.10;;;0.53;;
24086;SDS011;22893;50.572;7.234;2022-07-12T15:22:51;1.07;;;0.57;;
24086;SDS011;22893;50.572;7.234;2022-07-12T15:25:19;0.82;;;0.50;;
24086;SDS011;22893;50.572;7.234;2022-07-12T15:27:47;1.90;;;1.05;;
24086;SDS011;22893;50.572;7.234;2022-07-12T15:30:15;1.27;;;0.68;;
24086;SDS011;22893;50.572;7.234;2022-07-12T15:33:01;1.17;;;0.53;;
24086;SDS011;22893;50.572;7.234;2022-07-12T15:35:28;1.15;;;0.72;;
24086;SDS011;22893;50.572;7.234;2022-07-12T15:37:56;1.05;;;0.62;;
24086;SDS011;22893;50.572;7.234;2022-07-12T15:40:23;1.47;;;0.70;;
24086;SDS011;22893;50.572;7.234;2022-07-12T15:42:51;1.25;;;0.57;;
24086;SDS011;22893;50.572;7.234;2022-07-12T15:45:18;1.57;;;0.80;;
24086;SDS011;22893;50.572;7.234;2022-07-12T15:47:46;1.92;;;0.68;;
24086;SDS011;22893;50.572;7.234;2022-07-12T15:50:14;2.47;;;0.70;;
24086;SDS011;22893;50.572;7.234;2022-07-12T15:52:41;0.88;;;0.57;;
24086;SDS011;22893;50.572;7.234;2022-07-12T15:55:27;1.72;;;0.70;;
24086;SDS011;22893;50.572;7.234;2022-07-12T15:57:57;2.75;;;1.15;;
24086;SDS011;22893;50.572;7.234;2022-07-12T16:00:25;0.98;;;0.60;;
24086;SDS011;22893;50.572;7.234;2022-07-12T16:02:53;0.42;;;0.42;;
24086;SDS011;22893;50.572;7.234;2022-07-12T16:05:21;0.70;;;0.57;;
24086;SDS011;22893;50.572;7.234;2022-07-12T16:07:49;0.98;;;0.80;;
24086;SDS011;22893;50.572;7.234;2022-07-12T16:10:18;1.87;;;0.93;;
24086;SDS011;22893;50.572;7.234;2022-07-12T16:12:45;1.42;;;0.62;;
24086;SDS011;22893;50.572;7.234;2022-07-12T16:15:13;1.10;;;0.60;;
24086;SDS011;22893;50.572;7.234;2022-07-12T16:17:41;3.52;;;1.27;;
24086;SDS011;22893;50.572;7.234;2022-07-12T16:20:09;27.52;;;1.25;;
24086;SDS011;22893;50.572;7.234;2022-07-12T16:22:37;3.35;;;1.85;;
24086;SDS011;22893;50.572;7.234;2022-07-12T16:25:05;1.70;;;0.60;;
24086;SDS011;22893;50.572;7.234;2022-07-12T16:27:32;1.65;;;1.00;;
24086;SDS011;22893;50.572;7.234;2022-07-12T16:30:00;3.77;;;1.20;;
24086;SDS011;22893;50.572;7.234;2022-07-12T16:32:46;1.45;;;0.55;;
24086;SDS011;22893;50.572;7.234;2022-07-12T16:35:14;2.15;;;0.60;;
24086;SDS011;22893;50.572;7.234;2022-07-12T16:37:41;1.92;;;0.60;;
24086;SDS011;22893;50.572;7.234;2022-07-12T16:40:11;1.15;;;0.80;;
24086;SDS011;22893;50.572;7.234;2022-07-12T16:42:40;1.05;;;0.70;;
24086;SDS011;22893;50.572;7.234;2022-07-12T16:45:08;1.40;;;0.70;;
24086;SDS011;22893;50.572;7.234;2022-07-12T16:47:36;0.88;;;0.50;;
24086;SDS011;22893;50.572;7.234;2022-07-12T16:50:04;3.67;;;0.50;;
24086;SDS011;22893;50.572;7.234;2022-07-12T16:52:32;1.20;;;0.70;;
24086;SDS011;22893;50.572;7.234;2022-07-12T16:55:01;1.65;;;0.82;;
24086;SDS011;22893;50.572;7.234;2022-07-12T16:57:29;3.60;;;0.70;;
24086;SDS011;22893;50.572;7.234;2022-07-12T16:59:56;0.93;;;0.70;;
24086;SDS011;22893;50.572;7.234;2022-07-12T17:02:24;1.32;;;0.53;;
24086;SDS011;22893;50.572;7.234;2022-07-12T17:04:52;0.88;;;0.70;;
24086;SDS011;22893;50.572;7.234;2022-07-12T17:07:19;4.12;;;0.72;;
24086;SDS011;22893;50.572;7.234;2022-07-12T17:09:47;0.72;;;0.60;;
24086;SDS011;22893;50.572;7.234;2022-07-12T17:12:14;1.35;;;0.70;;
24086;SDS011;22893;50.572;7.234;2022-07-12T17:14:42;1.10;;;0.68;;
24086;SDS011;22893;50.572;7.234;2022-07-12T17:17:10;1.47;;;0.70;;
24086;SDS011;22893;50.572;7.234;2022-07-12T17:19:38;0.90;;;0.60;;
24086;SDS011;22893;50.572;7.234;2022-07-12T17:22:06;2.65;;;0.75;;
24086;SDS011;22893;50.572;7.234;2022-07-12T17:24:34;1.47;;;0.62;;
24086;SDS011;22893;50.572;7.234;2022-07-12T17:27:01;1.20;;;0.57;;
24086;SDS011;22893;50.572;7.234;2022-07-12T17:29:29;1.20;;;0.70;;
24086;SDS011;22893;50.572;7.234;2022-07-12T17:31:57;1.05;;;0.62;;
24086;SDS011;22893;50.572;7.234;2022-07-12T17:34:24;1.50;;;0.65;;
24086;SDS011;22893;50.572;7.234;2022-07-12T17:36:52;1.65;;;0.78;;
24086;SDS011;22893;50.572;7.234;2022-07-12T17:39:20;1.12;;;0.75;;
24086;SDS011;22893;50.572;7.234;2022-07-12T17:41:47;1.32;;;0.72;;
24086;SDS011;22893;50.572;7.234;2022-07-12T17:44:16;1.00;;;0.90;;
24086;SDS011;22893;50.572;7.234;2022-07-12T17:46:44;0.80;;;0.53;;
24086;SDS011;22893;50.572;7.234;2022-07-12T17:49:13;3.05;;;0.80;;
24086;SDS011;22893;50.572;7.234;2022-07-12T17:51:40;0.57;;;0.47;;
24086;SDS011;22893;50.572;7.234;2022-07-12T17:54:08;0.88;;;0.72;;
24086;SDS011;22893;50.572;7.234;2022-07-12T17:56:39;1.87;;;0.70;;
24086;SDS011;22893;50.572;7.234;2022-07-12T17:59:06;1.57;;;0.75;;
24086;SDS011;22893;50.572;7.234;2022-07-12T18:01:34;1.95;;;0.82;;
24086;SDS011;22893;50.572;7.234;2022-07-12T18:04:01;1.60;;;0.93;;
24086;SDS011;22893;50.572;7.234;2022-07-12T18:06:29;2.05;;;0.68;;
24086;SDS011;22893;50.572;7.234;2022-07-12T18:08:57;3.52;;;0.78;;
24086;SDS011;22893;50.572;7.234;2022-07-12T18:11:24;2.33;;;1.00;;
24086;SDS011;22893;50.572;7.234;2022-07-12T18:14:10;1.92;;;0.80;;
24086;SDS011;22893;50.572;7.234;2022-07-12T18:16:55;2.60;;;1.00;;
24086;SDS011;22893;50.572;7.234;2022-07-12T18:19:41;1.35;;;0.85;;
24086;SDS011;22893;50.572;7.234;2022-07-12T18:22:08;1.37;;;0.85;;
24086;SDS011;22893;50.572;7.234;2022-07-12T18:24:36;2.37;;;0.80;;
24086;SDS011;22893;50.572;7.234;2022-07-12T18:27:21;1.65;;;1.05;;
24086;SDS011;22893;50.572;7.234;2022-07-12T18:29:49;2.02;;;1.10;;
24086;SDS011;22893;50.572;7.234;2022-07-12T18:32:19;1.10;;;0.88;;
24086;SDS011;22893;50.572;7.234;2022-07-12T18:34:47;1.40;;;0.75;;
24086;SDS011;22893;50.572;7.234;2022-07-12T18:37:15;1.55;;;1.05;;
24086;SDS011;22893;50.572;7.234;2022-07-12T18:39:42;1.80;;;0.90;;
24086;SDS011;22893;50.572;7.234;2022-07-12T18:42:10;1.72;;;0.70;;
24086;SDS011;22893;50.572;7.234;2022-07-12T18:44:38;4.47;;;1.10;;
24086;SDS011;22893;50.572;7.234;2022-07-12T18:47:05;1.17;;;0.75;;
24086;SDS011;22893;50.572;7.234;2022-07-12T18:49:33;2.35;;;0.80;;
24086;SDS011;22893;50.572;7.234;2022-07-12T18:52:01;3.30;;;1.57;;
24086;SDS011;22893;50.572;7.234;2022-07-12T18:54:29;1.98;;;0.98;;
24086;SDS011;22893;50.572;7.234;2022-07-12T19:00:04;2.70;;;0.80;;
24086;SDS011;22893;50.572;7.234;2022-07-12T19:02:33;1.40;;;0.70;;
24086;SDS011;22893;50.572;7.234;2022-07-12T19:05:01;1.67;;;0.80;;
24086;SDS011;22893;50.572;7.234;2022-07-12T19:07:29;1.60;;;1.00;;
24086;SDS011;22893;50.572;7.234;2022-07-12T19:09:57;1.32;;;0.93;;
24086;SDS011;22893;50.572;7.234;2022-07-12T19:12:24;1.47;;;0.70;;
24086;SDS011;22893;50.572;7.234;2022-07-12T19:14:54;3.62;;;0.80;;
24086;SDS011;22893;50.572;7.234;2022-07-12T19:17:21;1.75;;;1.00;;
24086;SDS011;22893;50.572;7.234;2022-07-12T19:19:50;2.33;;;0.93;;
24086;SDS011;22893;50.572;7.234;2022-07-12T19:22:17;1.70;;;0.95;;
24086;SDS011;22893;50.572;7.234;2022-07-12T19:24:45;2.83;;;1.40;;
24086;SDS011;22893;50.572;7.234;2022-07-12T19:27:12;1.82;;;0.93;;
24086;SDS011;22893;50.572;7.234;2022-07-12T19:29:42;1.32;;;0.93;;
24086;SDS011;22893;50.572;7.234;2022-07-12T19:32:10;1.52;;;0.80;;
24086;SDS011;22893;50.572;7.234;2022-07-12T19:34:39;1.50;;;0.90;;
24086;SDS011;22893;50.572;7.234;2022-07-12T19:37:07;1.65;;;0.80;;
24086;SDS011;22893;50.572;7.234;2022-07-12T19:39:35;1.15;;;0.90;;
24086;SDS011;22893;50.572;7.234;2022-07-12T19:42:02;1.95;;;1.00;;
24086;SDS011;22893;50.572;7.234;2022-07-12T19:44:30;1.90;;;0.82;;
24086;SDS011;22893;50.572;7.234;2022-07-12T19:46:57;3.20;;;0.80;;
24086;SDS011;22893;50.572;7.234;2022-07-12T19:49:25;2.00;;;1.00;;
24086;SDS011;22893;50.572;7.234;2022-07-12T19:51:52;1.20;;;0.88;;
24086;SDS011;22893;50.572;7.234;2022-07-12T19:54:20;2.83;;;0.95;;
24086;SDS011;22893;50.572;7.234;2022-07-12T19:56:49;1.27;;;0.70;;
24086;SDS011;22893;50.572;7.234;2022-07-12T19:59:17;1.40;;;0.90;;
24086;SDS011;22893;50.572;7.234;2022-07-12T20:01:45;1.80;;;0.85;;
24086;SDS011;22893;50.572;7.234;2022-07-12T20:04:13;1.20;;;0.80;;
24086;SDS011;22893;50.572;7.234;2022-07-12T20:06:41;1.20;;;0.75;;
24086;SDS011;22893;50.572;7.234;2022-07-12T20:09:08;1.15;;;0.70;;
24086;SDS011;22893;50.572;7.234;2022-07-12T20:11:36;2.05;;;1.05;;
24086;SDS011;22893;50.572;7.234;2022-07-12T20:14:03;2.08;;;0.93;;
24086;SDS011;22893;50.572;7.234;2022-07-12T20:16:31;2.08;;;1.12;;
24086;SDS011;22893;50.572;7.234;2022-07-12T20:18:59;6.42;;;0.95;;
24086;SDS011;22893;50.572;7.234;2022-07-12T20:21:26;2.52;;;1.00;;
24086;SDS011;22893;50.572;7.234;2022-07-12T20:23:54;1.90;;;0.95;;
24086;SDS011;22893;50.572;7.234;2022-07-12T20:26:22;1.47;;;0.95;;
24086;SDS011;22893;50.572;7.234;2022-07-12T20:28:49;1.20;;;0.90;;
24086;SDS011;22893;50.572;7.234;2022-07-12T20:31:17;0.88;;;0.70;;
24086;SDS011;22893;50.572;7.234;2022-07-12T20:33:44;1.57;;;0.75;;
24086;SDS011;22893;50.572;7.234;2022-07-12T20:36:30;2.62;;;1.37;;
24086;SDS011;22893;50.572;7.234;2022-07-12T20:38:58;2.80;;;0.75;;
24086;SDS011;22893;50.572;7.234;2022-07-12T20:41:26;2.27;;;1.30;;
24086;SDS011;22893;50.572;7.234;2022-07-12T20:43:53;2.22;;;1.00;;
24086;SDS011;22893;50.572;7.234;2022-07-12T20:46:21;1.30;;;0.82;;
24086;SDS011;22893;50.572;7.234;2022-07-12T20:48:49;1.80;;;0.70;;
24086;SDS011;22893;50.572;7.234;2022-07-12T20:51:17;2.75;;;1.07;;
24086;SDS011;22893;50.572;7.234;2022-07-12T20:53:44;1.62;;;0.90;;
24086;SDS011;22893;50.572;7.234;2022-07-12T20:56:14;1.20;;;0.78;;
24086;SDS011;22893;50.572;7.234;2022-07-12T20:58:41;1.47;;;0.78;;